sensor_id;sensor_type;location;lat;lon;timestamp;pressure;altitude;pressure_sealevel;temperature;humidity
19259;BME280;9763;48.780;9.212;2023-07-31T00:01:57;98430.91;;;21.18;68.24
19259;BME280;9763;48.780;9.212;2023-07-31T00:05:21;98423.44;;;21.13;68.02
19259;BME280;9763;48.780;9.212;2023-07-31T00:08:46;98417.47;;;21.11;67.64
19259;BME280;9763;48.780;9.212;2023-07-31T00:12:11;98413.50;;;21.07;67.98
19259;BME280;9763;48.780;9.212;2023-07-31T00:15:34;98412.00;;;21.05;68.17
19259;BME280;9763;48.780;9.212;2023-07-31T00:18:58;98426.59;;;21.01;68.26
19259;BME280;9763;48.780;9.212;2023-07-31T00:22:21;98428.75;;;20.97;67.80
19259;BME280;9763;48.780;9.212;2023-07-31T00:25:46;98428.25;;;20.94;68.27
19259;BME280;9763;48.780;9.212;2023-07-31T00:29:10;98431.22;;;20.91;67.89
19259;BME280;9763;48.780;9.212;2023-07-31T00:32:33;98424.59;;;20.87;68.13
19259;BME280;9763;48.780;9.212;2023-07-31T00:35:57;98408.00;;;20.84;68.22
19259;BME280;9763;48.780;9.212;2023-07-31T00:39:21;98410.16;;;20.81;68.08
19259;BME280;9763;48.780;9.212;2023-07-31T00:42:45;98413.13;;;20.78;67.97
19259;BME280;9763;48.780;9.212;2023-07-31T00:46:09;98402.88;;;20.75;67.97
19259;BME280;9763;48.780;9.212;2023-07-31T00:49:33;98401.34;;;20.72;68.64
19259;BME280;9763;48.780;9.212;2023-07-31T00:52:57;98407.66;;;20.71;68.38
19259;BME280;9763;48.780;9.212;2023-07-31T00:56:21;98403.66;;;20.67;68.22
19259;BME280;9763;48.780;9.212;2023-07-31T00:59:46;98417.09;;;20.66;68.10
19259;BME280;9763;48.780;9.212;2023-07-31T01:03:11;98420.09;;;20.63;68.66
19259;BME280;9763;48.780;9.212;2023-07-31T01:06:41;98416.91;;;20.59;68.16
19259;BME280;9763;48.780;9.212;2023-07-31T01:10:16;98419.88;;;20.56;68.42
19259;BME280;9763;48.780;9.212;2023-07-31T01:13:42;98416.91;;;20.51;68.42
19259;BME280;9763;48.780;9.212;2023-07-31T01:17:07;98416.06;;;20.51;68.72
19259;BME280;9763;48.780;9.212;2023-07-31T01:20:33;98403.78;;;20.41;68.20
19259;BME280;9763;48.780;9.212;2023-07-31T01:24:23;98402.94;;;20.41;68.15
19259;BME280;9763;48.780;9.212;2023-07-31T01:27:59;98398.97;;;20.37;68.60
19259;BME280;9763;48.780;9.212;2023-07-31T01:31:25;98393.28;;;20.32;68.18
19259;BME280;9763;48.780;9.212;2023-07-31T01:34:51;98394.78;;;20.26;68.38
19259;BME280;9763;48.780;9.212;2023-07-31T01:38:15;98393.25;;;20.24;68.78
19259;BME280;9763;48.780;9.212;2023-07-31T01:41:43;98357.25;;;20.05;68.50
19259;BME280;9763;48.780;9.212;2023-07-31T01:45:10;98382.97;;;20.21;68.53
19259;BME280;9763;48.780;9.212;2023-07-31T01:48:33;98378.97;;;20.17;68.95
19259;BME280;9763;48.780;9.212;2023-07-31T01:51:59;98376.50;;;20.15;68.91
19259;BME280;9763;48.780;9.212;2023-07-31T01:55:22;98376.66;;;20.13;69.23
19259;BME280;9763;48.780;9.212;2023-07-31T01:58:46;98376.00;;;20.11;69.08
19259;BME280;9763;48.780;9.212;2023-07-31T02:02:11;98368.19;;;20.10;69.47
19259;BME280;9763;48.780;9.212;2023-07-31T02:05:34;98364.56;;;20.11;69.01
19259;BME280;9763;48.780;9.212;2023-07-31T02:08:58;98351.13;;;20.04;69.11
19259;BME280;9763;48.780;9.212;2023-07-31T02:12:22;98363.06;;;20.08;69.43
19259;BME280;9763;48.780;9.212;2023-07-31T02:15:45;98349.97;;;20.07;69.38
19259;BME280;9763;48.780;9.212;2023-07-31T02:19:10;98344.34;;;20.10;69.50
19259;BME280;9763;48.780;9.212;2023-07-31T02:22:34;98348.66;;;20.11;69.33
19259;BME280;9763;48.780;9.212;2023-07-31T02:25:57;98344.19;;;20.11;69.72
19259;BME280;9763;48.780;9.212;2023-07-31T02:29:21;98349.19;;;20.14;69.02
19259;BME280;9763;48.780;9.212;2023-07-31T02:32:45;98331.94;;;20.19;69.00
19259;BME280;9763;48.780;9.212;2023-07-31T02:36:10;98336.09;;;20.21;68.88
19259;BME280;9763;48.780;9.212;2023-07-31T02:39:33;98331.97;;;20.27;68.98
19259;BME280;9763;48.780;9.212;2023-07-31T02:42:57;98328.97;;;20.30;68.97
19259;BME280;9763;48.780;9.212;2023-07-31T02:46:21;98330.81;;;20.29;69.81
19259;BME280;9763;48.780;9.212;2023-07-31T02:49:47;98322.00;;;20.29;69.57
19259;BME280;9763;48.780;9.212;2023-07-31T02:53:13;98330.16;;;20.27;68.87
19259;BME280;9763;48.780;9.212;2023-07-31T02:56:37;98311.91;;;20.24;69.46
19259;BME280;9763;48.780;9.212;2023-07-31T03:00:01;98303.47;;;20.21;68.82
19259;BME280;9763;48.780;9.212;2023-07-31T03:03:28;98302.78;;;20.19;69.48
19259;BME280;9763;48.780;9.212;2023-07-31T03:06:52;98310.06;;;20.17;69.50
19259;BME280;9763;48.780;9.212;2023-07-31T03:10:17;98312.91;;;20.15;69.57
19259;BME280;9763;48.780;9.212;2023-07-31T03:13:40;98319.34;;;20.12;69.37
19259;BME280;9763;48.780;9.212;2023-07-31T03:17:04;98322.31;;;20.09;68.99
19259;BME280;9763;48.780;9.212;2023-07-31T03:20:28;98320.97;;;20.05;68.74
19259;BME280;9763;48.780;9.212;2023-07-31T03:23:51;98316.69;;;20.04;68.52
19259;BME280;9763;48.780;9.212;2023-07-31T03:27:16;98322.31;;;20.01;68.45
19259;BME280;9763;48.780;9.212;2023-07-31T03:30:40;98319.81;;;20.00;68.67
19259;BME280;9763;48.780;9.212;2023-07-31T03:34:03;98318.16;;;19.99;68.89
19259;BME280;9763;48.780;9.212;2023-07-31T03:37:27;98318.31;;;19.97;69.12
19259;BME280;9763;48.780;9.212;2023-07-31T03:40:51;98317.63;;;19.95;69.14
19259;BME280;9763;48.780;9.212;2023-07-31T03:44:16;98316.31;;;19.91;69.41
19259;BME280;9763;48.780;9.212;2023-07-31T03:47:40;98333.03;;;19.92;68.96
19259;BME280;9763;48.780;9.212;2023-07-31T03:51:03;98323.28;;;19.92;69.41
19259;BME280;9763;48.780;9.212;2023-07-31T03:54:27;98320.44;;;19.94;68.70
19259;BME280;9763;48.780;9.212;2023-07-31T03:57:50;98329.91;;;19.96;68.92
19259;BME280;9763;48.780;9.212;2023-07-31T04:01:15;98328.06;;;19.97;68.99
19259;BME280;9763;48.780;9.212;2023-07-31T04:04:40;98328.59;;;20.00;69.71
19259;BME280;9763;48.780;9.212;2023-07-31T04:08:04;98327.28;;;20.04;69.15
19259;BME280;9763;48.780;9.212;2023-07-31T04:11:27;98326.16;;;20.15;68.90
19259;BME280;9763;48.780;9.212;2023-07-31T04:14:51;98329.31;;;20.27;68.87
19259;BME280;9763;48.780;9.212;2023-07-31T04:18:16;98320.09;;;20.39;69.32
19259;BME280;9763;48.780;9.212;2023-07-31T04:21:39;98311.66;;;20.52;69.20
19259;BME280;9763;48.780;9.212;2023-07-31T04:25:04;98309.84;;;20.60;69.28
19259;BME280;9763;48.780;9.212;2023-07-31T04:28:28;98306.69;;;20.65;69.46
19259;BME280;9763;48.780;9.212;2023-07-31T04:31:54;98306.34;;;20.68;69.08
19259;BME280;9763;48.780;9.212;2023-07-31T04:35:19;98308.50;;;20.72;68.53
19259;BME280;9763;48.780;9.212;2023-07-31T04:38:42;98296.38;;;20.78;68.88
19259;BME280;9763;48.780;9.212;2023-07-31T04:42:06;98308.00;;;20.85;69.39
19259;BME280;9763;48.780;9.212;2023-07-31T04:45:29;98311.31;;;20.95;69.52
19259;BME280;9763;48.780;9.212;2023-07-31T04:48:53;98313.78;;;21.05;68.65
19259;BME280;9763;48.780;9.212;2023-07-31T04:52:18;98316.75;;;21.18;69.28
19259;BME280;9763;48.780;9.212;2023-07-31T04:55:41;98301.50;;;21.36;69.68
19259;BME280;9763;48.780;9.212;2023-07-31T04:59:05;98294.94;;;21.55;69.35
19259;BME280;9763;48.780;9.212;2023-07-31T05:02:29;98305.03;;;21.68;69.12
19259;BME280;9763;48.780;9.212;2023-07-31T05:05:52;98306.34;;;21.72;68.49
19259;BME280;9763;48.780;9.212;2023-07-31T05:09:17;98299.53;;;21.69;68.06
19259;BME280;9763;48.780;9.212;2023-07-31T05:12:41;98297.72;;;21.70;68.47
19259;BME280;9763;48.780;9.212;2023-07-31T05:16:04;98299.38;;;21.71;68.49
19259;BME280;9763;48.780;9.212;2023-07-31T05:19:28;98293.06;;;21.72;67.76
19259;BME280;9763;48.780;9.212;2023-07-31T05:22:51;98291.56;;;21.69;67.77
19259;BME280;9763;48.780;9.212;2023-07-31T05:26:16;98299.88;;;21.66;67.52
19259;BME280;9763;48.780;9.212;2023-07-31T05:29:41;98302.69;;;21.65;67.76
19259;BME280;9763;48.780;9.212;2023-07-31T05:33:04;98304.34;;;21.66;67.42
19259;BME280;9763;48.780;9.212;2023-07-31T05:36:28;98295.31;;;21.83;68.49
19259;BME280;9763;48.780;9.212;2023-07-31T05:39:51;98289.84;;;22.15;69.13
19259;BME280;9763;48.780;9.212;2023-07-31T05:43:16;98291.41;;;22.55;68.43
19259;BME280;9763;48.780;9.212;2023-07-31T05:46:40;98295.56;;;22.95;68.43
19259;BME280;9763;48.780;9.212;2023-07-31T05:50:05;98294.59;;;23.26;68.49
19259;BME280;9763;48.780;9.212;2023-07-31T05:53:28;98296.03;;;23.51;67.68
19259;BME280;9763;48.780;9.212;2023-07-31T05:56:52;98282.47;;;23.82;67.83
19259;BME280;9763;48.780;9.212;2023-07-31T06:00:17;98279.13;;;23.95;66.79
19259;BME280;9763;48.780;9.212;2023-07-31T06:03:41;98281.16;;;23.93;66.94
19259;BME280;9763;48.780;9.212;2023-07-31T06:07:05;98283.81;;;23.93;66.55
19259;BME280;9763;48.780;9.212;2023-07-31T06:10:29;98282.38;;;23.90;65.51
19259;BME280;9763;48.780;9.212;2023-07-31T06:13:52;98288.78;;;23.96;65.61
19259;BME280;9763;48.780;9.212;2023-07-31T06:17:17;98285.31;;;24.31;65.87
19259;BME280;9763;48.780;9.212;2023-07-31T06:20:41;98271.84;;;24.89;66.34
19259;BME280;9763;48.780;9.212;2023-07-31T06:24:05;98282.53;;;25.79;66.33
19259;BME280;9763;48.780;9.212;2023-07-31T06:27:29;98277.16;;;26.46;66.26
19259;BME280;9763;48.780;9.212;2023-07-31T06:30:53;98276.81;;;27.15;65.53
19259;BME280;9763;48.780;9.212;2023-07-31T06:34:18;98273.63;;;28.03;64.81
19259;BME280;9763;48.780;9.212;2023-07-31T06:37:41;98281.34;;;28.62;63.66
19259;BME280;9763;48.780;9.212;2023-07-31T06:41:06;98270.59;;;28.93;62.58
19259;BME280;9763;48.780;9.212;2023-07-31T06:44:30;98272.66;;;29.16;61.60
19259;BME280;9763;48.780;9.212;2023-07-31T06:47:53;98277.94;;;29.48;61.58
19259;BME280;9763;48.780;9.212;2023-07-31T06:51:18;98277.34;;;29.82;60.90
19259;BME280;9763;48.780;9.212;2023-07-31T06:54:42;98281.56;;;30.08;60.71
19259;BME280;9763;48.780;9.212;2023-07-31T06:58:06;98285.94;;;30.21;59.76
19259;BME280;9763;48.780;9.212;2023-07-31T07:01:29;98288.97;;;30.42;59.05
19259;BME280;9763;48.780;9.212;2023-07-31T07:04:53;98275.91;;;30.58;58.85
19259;BME280;9763;48.780;9.212;2023-07-31T07:08:18;98282.75;;;30.72;57.69
19259;BME280;9763;48.780;9.212;2023-07-31T07:11:42;98278.53;;;30.64;57.39
19259;BME280;9763;48.780;9.212;2023-07-31T07:15:06;98278.28;;;30.66;57.21
19259;BME280;9763;48.780;9.212;2023-07-31T07:18:30;98284.41;;;30.43;56.80
19259;BME280;9763;48.780;9.212;2023-07-31T07:21:54;98279.81;;;30.02;55.69
19259;BME280;9763;48.780;9.212;2023-07-31T07:25:19;98277.72;;;29.49;55.53
19259;BME280;9763;48.780;9.212;2023-07-31T07:28:43;98271.03;;;29.33;56.24
19259;BME280;9763;48.780;9.212;2023-07-31T07:32:07;98264.41;;;29.54;56.06
19259;BME280;9763;48.780;9.212;2023-07-31T07:35:33;98260.75;;;29.67;55.27
19259;BME280;9763;48.780;9.212;2023-07-31T07:38:57;98273.34;;;29.30;54.82
19259;BME280;9763;48.780;9.212;2023-07-31T07:42:22;98266.53;;;28.84;55.89
19259;BME280;9763;48.780;9.212;2023-07-31T07:45:45;98261.03;;;28.73;56.16
19259;BME280;9763;48.780;9.212;2023-07-31T07:49:09;98256.00;;;28.83;55.87
19259;BME280;9763;48.780;9.212;2023-07-31T07:52:32;98262.28;;;29.20;56.60
19259;BME280;9763;48.780;9.212;2023-07-31T07:55:56;98266.19;;;29.97;56.65
19259;BME280;9763;48.780;9.212;2023-07-31T07:59:21;98265.16;;;30.28;55.20
19259;BME280;9763;48.780;9.212;2023-07-31T08:02:45;98251.94;;;30.38;55.36
19259;BME280;9763;48.780;9.212;2023-07-31T08:06:09;98265.78;;;31.30;55.69
19259;BME280;9763;48.780;9.212;2023-07-31T08:09:33;98243.78;;;31.84;55.17
19259;BME280;9763;48.780;9.212;2023-07-31T08:12:57;98229.34;;;33.03;54.32
19259;BME280;9763;48.780;9.212;2023-07-31T08:16:22;98249.91;;;33.37;52.76
19259;BME280;9763;48.780;9.212;2023-07-31T08:19:45;98243.84;;;33.30;52.61
19259;BME280;9763;48.780;9.212;2023-07-31T08:23:09;98234.84;;;34.12;52.44
19259;BME280;9763;48.780;9.212;2023-07-31T08:26:33;98228.47;;;35.24;51.10
19259;BME280;9763;48.780;9.212;2023-07-31T08:29:57;98226.56;;;35.77;49.71
19259;BME280;9763;48.780;9.212;2023-07-31T08:33:21;98229.44;;;36.27;49.21
19259;BME280;9763;48.780;9.212;2023-07-31T08:36:45;98228.63;;;36.47;47.83
19259;BME280;9763;48.780;9.212;2023-07-31T08:40:10;98211.66;;;35.89;47.21
19259;BME280;9763;48.780;9.212;2023-07-31T08:43:37;98228.06;;;35.05;47.82
19259;BME280;9763;48.780;9.212;2023-07-31T08:47:01;98219.25;;;34.56;48.13
19259;BME280;9763;48.780;9.212;2023-07-31T08:50:27;98215.09;;;34.16;47.42
19259;BME280;9763;48.780;9.212;2023-07-31T08:53:52;98217.56;;;33.91;47.44
19259;BME280;9763;48.780;9.212;2023-07-31T08:57:17;98207.16;;;33.61;46.99
19259;BME280;9763;48.780;9.212;2023-07-31T09:00:42;98215.91;;;33.90;47.46
19259;BME280;9763;48.780;9.212;2023-07-31T09:04:09;98215.03;;;33.84;46.70
19259;BME280;9763;48.780;9.212;2023-07-31T09:07:35;98213.25;;;33.95;46.30
19259;BME280;9763;48.780;9.212;2023-07-31T09:11:00;98178.66;;;34.29;46.59
19259;BME280;9763;48.780;9.212;2023-07-31T09:14:26;98186.56;;;35.62;46.64
19259;BME280;9763;48.780;9.212;2023-07-31T09:17:59;98189.72;;;36.87;45.18
19259;BME280;9763;48.780;9.212;2023-07-31T09:21:24;98197.44;;;38.14;43.93
19259;BME280;9763;48.780;9.212;2023-07-31T09:24:51;98201.81;;;38.05;42.56
19259;BME280;9763;48.780;9.212;2023-07-31T09:28:15;98200.72;;;37.52;42.88
19259;BME280;9763;48.780;9.212;2023-07-31T09:31:41;98193.00;;;36.89;42.98
19259;BME280;9763;48.780;9.212;2023-07-31T09:35:18;98172.34;;;36.42;42.49
19259;BME280;9763;48.780;9.212;2023-07-31T09:38:43;98190.00;;;36.25;42.96
19259;BME280;9763;48.780;9.212;2023-07-31T09:42:09;98192.88;;;35.20;43.42
19259;BME280;9763;48.780;9.212;2023-07-31T09:45:36;98179.19;;;34.26;43.90
19259;BME280;9763;48.780;9.212;2023-07-31T09:49:06;98171.97;;;33.39;44.76
19259;BME280;9763;48.780;9.212;2023-07-31T09:52:29;98164.88;;;32.95;45.48
19259;BME280;9763;48.780;9.212;2023-07-31T09:55:54;98158.31;;;33.51;45.12
19259;BME280;9763;48.780;9.212;2023-07-31T09:59:20;98141.41;;;34.88;43.51
19259;BME280;9763;48.780;9.212;2023-07-31T10:02:47;98140.78;;;36.57;42.38
19259;BME280;9763;48.780;9.212;2023-07-31T10:06:11;98141.88;;;36.51;42.11
19259;BME280;9763;48.780;9.212;2023-07-31T10:09:35;98129.81;;;35.70;42.98
19259;BME280;9763;48.780;9.212;2023-07-31T10:13:00;98129.34;;;36.14;42.15
19259;BME280;9763;48.780;9.212;2023-07-31T10:16:26;98131.69;;;37.12;40.84
19259;BME280;9763;48.780;9.212;2023-07-31T10:19:50;98116.72;;;37.69;38.84
19259;BME280;9763;48.780;9.212;2023-07-31T10:23:15;98119.88;;;37.42;39.30
19259;BME280;9763;48.780;9.212;2023-07-31T10:26:41;98124.16;;;36.78;38.89
19259;BME280;9763;48.780;9.212;2023-07-31T10:30:11;98120.69;;;36.32;39.21
19259;BME280;9763;48.780;9.212;2023-07-31T10:33:39;98105.69;;;36.15;39.44
19259;BME280;9763;48.780;9.212;2023-07-31T10:37:24;98108.41;;;35.84;39.17
19259;BME280;9763;48.780;9.212;2023-07-31T10:40:50;98097.84;;;36.33;39.85
19259;BME280;9763;48.780;9.212;2023-07-31T10:44:13;98100.78;;;35.81;39.67
19259;BME280;9763;48.780;9.212;2023-07-31T10:47:44;98105.97;;;35.83;39.96
19259;BME280;9763;48.780;9.212;2023-07-31T10:51:11;98106.53;;;36.10;40.04
19259;BME280;9763;48.780;9.212;2023-07-31T10:54:35;98105.38;;;35.70;40.40
19259;BME280;9763;48.780;9.212;2023-07-31T10:58:06;98105.63;;;34.96;40.46
19259;BME280;9763;48.780;9.212;2023-07-31T11:01:52;98096.94;;;34.89;39.96
19259;BME280;9763;48.780;9.212;2023-07-31T11:05:17;98092.50;;;35.30;39.45
19259;BME280;9763;48.780;9.212;2023-07-31T11:08:44;98074.44;;;36.17;38.90
19259;BME280;9763;48.780;9.212;2023-07-31T11:12:08;98074.03;;;36.95;38.08
19259;BME280;9763;48.780;9.212;2023-07-31T11:15:32;98086.72;;;37.20;37.38
19259;BME280;9763;48.780;9.212;2023-07-31T11:18:56;98085.28;;;36.48;38.40
19259;BME280;9763;48.780;9.212;2023-07-31T11:22:20;98079.16;;;35.24;39.38
19259;BME280;9763;48.780;9.212;2023-07-31T11:25:46;98076.66;;;34.23;40.33
19259;BME280;9763;48.780;9.212;2023-07-31T11:29:11;98094.22;;;33.35;41.60
19259;BME280;9763;48.780;9.212;2023-07-31T11:32:36;98100.00;;;32.61;42.39
19259;BME280;9763;48.780;9.212;2023-07-31T11:36:00;98082.34;;;32.03;43.55
19259;BME280;9763;48.780;9.212;2023-07-31T11:39:24;98085.19;;;31.52;43.71
19259;BME280;9763;48.780;9.212;2023-07-31T11:42:50;98094.97;;;31.01;44.10
19259;BME280;9763;48.780;9.212;2023-07-31T11:46:14;98089.50;;;30.61;44.94
19259;BME280;9763;48.780;9.212;2023-07-31T11:49:39;98083.28;;;30.37;45.36
19259;BME280;9763;48.780;9.212;2023-07-31T11:53:07;98068.53;;;30.39;45.41
19259;BME280;9763;48.780;9.212;2023-07-31T11:56:32;98068.91;;;30.55;45.84
19259;BME280;9763;48.780;9.212;2023-07-31T11:59:58;98062.16;;;30.80;45.40
19259;BME280;9763;48.780;9.212;2023-07-31T12:03:21;98047.84;;;30.92;45.26
19259;BME280;9763;48.780;9.212;2023-07-31T12:06:46;98043.56;;;31.07;44.87
19259;BME280;9763;48.780;9.212;2023-07-31T12:10:09;98031.81;;;31.25;45.04
19259;BME280;9763;48.780;9.212;2023-07-31T12:13:33;98034.72;;;31.35;45.34
19259;BME280;9763;48.780;9.212;2023-07-31T12:17:04;98038.56;;;31.56;45.26
19259;BME280;9763;48.780;9.212;2023-07-31T12:20:30;98024.00;;;31.40;45.14
19259;BME280;9763;48.780;9.212;2023-07-31T12:23:55;98027.78;;;30.99;45.04
19259;BME280;9763;48.780;9.212;2023-07-31T12:27:19;98027.66;;;30.66;45.49
19259;BME280;9763;48.780;9.212;2023-07-31T12:30:45;98018.03;;;30.47;45.77
19259;BME280;9763;48.780;9.212;2023-07-31T12:34:18;98018.41;;;30.38;46.25
19259;BME280;9763;48.780;9.212;2023-07-31T12:37:43;98022.25;;;30.19;46.23
19259;BME280;9763;48.780;9.212;2023-07-31T12:41:07;98004.81;;;29.98;46.61
19259;BME280;9763;48.780;9.212;2023-07-31T12:44:30;98004.19;;;29.85;47.10
19259;BME280;9763;48.780;9.212;2023-07-31T12:47:54;98000.19;;;29.64;46.82
19259;BME280;9763;48.780;9.212;2023-07-31T12:51:19;98005.09;;;29.44;47.06
19259;BME280;9763;48.780;9.212;2023-07-31T12:54:43;97995.72;;;29.16;46.97
19259;BME280;9763;48.780;9.212;2023-07-31T12:58:07;97988.63;;;28.92;47.35
19259;BME280;9763;48.780;9.212;2023-07-31T13:01:30;97985.88;;;28.80;47.30
19259;BME280;9763;48.780;9.212;2023-07-31T13:04:54;97977.88;;;28.74;47.66
19259;BME280;9763;48.780;9.212;2023-07-31T13:08:20;97975.97;;;28.74;47.93
19259;BME280;9763;48.780;9.212;2023-07-31T13:11:43;97969.75;;;28.80;48.18
19259;BME280;9763;48.780;9.212;2023-07-31T13:15:08;97971.16;;;28.83;47.70
19259;BME280;9763;48.780;9.212;2023-07-31T13:18:31;97969.31;;;28.83;48.54
19259;BME280;9763;48.780;9.212;2023-07-31T13:21:55;97966.44;;;28.96;47.83
19259;BME280;9763;48.780;9.212;2023-07-31T13:25:20;97966.75;;;29.18;48.46
19259;BME280;9763;48.780;9.212;2023-07-31T13:28:43;97968.69;;;29.41;48.31
19259;BME280;9763;48.780;9.212;2023-07-31T13:32:07;97958.66;;;29.60;47.60
19259;BME280;9763;48.780;9.212;2023-07-31T13:35:31;97940.66;;;29.84;47.85
19259;BME280;9763;48.780;9.212;2023-07-31T13:38:54;97938.34;;;30.11;47.28
19259;BME280;9763;48.780;9.212;2023-07-31T13:42:19;97945.78;;;30.32;46.45
19259;BME280;9763;48.780;9.212;2023-07-31T13:45:44;97925.31;;;30.19;46.28
19259;BME280;9763;48.780;9.212;2023-07-31T13:49:08;97941.16;;;30.04;45.62
19259;BME280;9763;48.780;9.212;2023-07-31T13:52:31;97929.66;;;29.85;46.38
19259;BME280;9763;48.780;9.212;2023-07-31T13:55:55;97939.16;;;29.76;46.75
19259;BME280;9763;48.780;9.212;2023-07-31T13:59:20;97932.25;;;29.68;47.19
19259;BME280;9763;48.780;9.212;2023-07-31T14:02:44;97923.47;;;29.73;47.16
19259;BME280;9763;48.780;9.212;2023-07-31T14:06:08;97919.84;;;29.79;47.43
19259;BME280;9763;48.780;9.212;2023-07-31T14:09:31;97911.41;;;29.76;47.02
19259;BME280;9763;48.780;9.212;2023-07-31T14:12:55;97923.44;;;29.61;46.88
19259;BME280;9763;48.780;9.212;2023-07-31T14:16:20;97912.22;;;29.41;47.68
19259;BME280;9763;48.780;9.212;2023-07-31T14:19:44;97921.06;;;29.30;47.44
19259;BME280;9763;48.780;9.212;2023-07-31T14:23:08;97919.06;;;29.25;47.92
19259;BME280;9763;48.780;9.212;2023-07-31T14:26:32;97914.88;;;29.29;48.04
19259;BME280;9763;48.780;9.212;2023-07-31T14:29:55;97905.63;;;29.37;48.03
19259;BME280;9763;48.780;9.212;2023-07-31T14:33:20;97895.72;;;29.49;48.01
19259;BME280;9763;48.780;9.212;2023-07-31T14:36:44;97904.28;;;29.58;48.32
19259;BME280;9763;48.780;9.212;2023-07-31T14:40:11;97893.75;;;29.56;48.38
19259;BME280;9763;48.780;9.212;2023-07-31T14:43:35;97889.88;;;29.52;48.17
19259;BME280;9763;48.780;9.212;2023-07-31T14:46:58;97877.72;;;29.50;48.33
19259;BME280;9763;48.780;9.212;2023-07-31T14:50:25;97885.69;;;29.56;48.41
19259;BME280;9763;48.780;9.212;2023-07-31T14:53:49;97880.78;;;29.65;48.23
19259;BME280;9763;48.780;9.212;2023-07-31T14:57:12;97884.88;;;29.67;48.17
19259;BME280;9763;48.780;9.212;2023-07-31T15:00:36;97886.16;;;29.65;48.12
19259;BME280;9763;48.780;9.212;2023-07-31T15:04:00;97881.59;;;29.65;47.63
19259;BME280;9763;48.780;9.212;2023-07-31T15:07:25;97878.44;;;29.68;47.77
19259;BME280;9763;48.780;9.212;2023-07-31T15:10:49;97886.84;;;29.72;47.95
19259;BME280;9763;48.780;9.212;2023-07-31T15:14:17;97870.22;;;29.75;47.99
19259;BME280;9763;48.780;9.212;2023-07-31T15:17:41;97875.25;;;29.83;48.11
19259;BME280;9763;48.780;9.212;2023-07-31T15:21:04;97867.88;;;29.90;47.75
19259;BME280;9763;48.780;9.212;2023-07-31T15:24:31;97857.69;;;29.92;48.14
19259;BME280;9763;48.780;9.212;2023-07-31T15:27:55;97854.28;;;29.85;48.08
19259;BME280;9763;48.780;9.212;2023-07-31T15:31:18;97842.94;;;29.83;48.09
19259;BME280;9763;48.780;9.212;2023-07-31T15:34:42;97840.63;;;29.75;47.67
19259;BME280;9763;48.780;9.212;2023-07-31T15:38:05;97837.94;;;29.63;47.73
19259;BME280;9763;48.780;9.212;2023-07-31T15:41:30;97831.41;;;29.48;47.81
19259;BME280;9763;48.780;9.212;2023-07-31T15:44:54;97823.31;;;29.36;48.18
19259;BME280;9763;48.780;9.212;2023-07-31T15:48:18;97815.97;;;29.20;48.12
19259;BME280;9763;48.780;9.212;2023-07-31T15:51:41;97801.69;;;29.08;48.15
19259;BME280;9763;48.780;9.212;2023-07-31T15:55:06;97802.59;;;29.01;48.61
19259;BME280;9763;48.780;9.212;2023-07-31T15:58:31;97803.63;;;28.89;48.62
19259;BME280;9763;48.780;9.212;2023-07-31T16:01:54;97795.47;;;28.84;48.75
19259;BME280;9763;48.780;9.212;2023-07-31T16:05:18;97780.69;;;28.75;49.16
19259;BME280;9763;48.780;9.212;2023-07-31T16:08:41;97804.38;;;28.66;48.89
19259;BME280;9763;48.780;9.212;2023-07-31T16:12:06;97796.22;;;28.61;49.18
19259;BME280;9763;48.780;9.212;2023-07-31T16:15:33;97806.59;;;28.57;49.21
19259;BME280;9763;48.780;9.212;2023-07-31T16:18:57;97801.44;;;28.56;48.75
19259;BME280;9763;48.780;9.212;2023-07-31T16:22:20;97793.59;;;28.54;49.21
19259;BME280;9763;48.780;9.212;2023-07-31T16:25:44;97782.97;;;28.48;49.13
19259;BME280;9763;48.780;9.212;2023-07-31T16:29:07;97777.56;;;28.36;49.10
19259;BME280;9763;48.780;9.212;2023-07-31T16:32:32;97781.47;;;28.22;48.57
19259;BME280;9763;48.780;9.212;2023-07-31T16:35:56;97793.41;;;28.08;49.10
19259;BME280;9763;48.780;9.212;2023-07-31T16:39:20;97788.69;;;28.03;49.58
19259;BME280;9763;48.780;9.212;2023-07-31T16:42:44;97791.75;;;28.07;49.71
19259;BME280;9763;48.780;9.212;2023-07-31T16:46:08;97802.28;;;28.08;49.24
19259;BME280;9763;48.780;9.212;2023-07-31T16:49:33;97792.19;;;28.04;49.69
19259;BME280;9763;48.780;9.212;2023-07-31T16:52:57;97798.28;;;27.99;49.05
19259;BME280;9763;48.780;9.212;2023-07-31T16:56:20;97792.63;;;27.89;48.94
19259;BME280;9763;48.780;9.212;2023-07-31T16:59:44;97784.63;;;27.82;49.07
19259;BME280;9763;48.780;9.212;2023-07-31T17:03:07;97793.00;;;27.74;49.78
19259;BME280;9763;48.780;9.212;2023-07-31T17:06:32;97787.69;;;27.68;48.71
19259;BME280;9763;48.780;9.212;2023-07-31T17:09:58;97791.66;;;27.65;49.36
19259;BME280;9763;48.780;9.212;2023-07-31T17:13:21;97785.91;;;27.62;49.43
19259;BME280;9763;48.780;9.212;2023-07-31T17:16:45;97779.75;;;27.54;50.06
19259;BME280;9763;48.780;9.212;2023-07-31T17:20:09;97772.84;;;27.47;50.23
19259;BME280;9763;48.780;9.212;2023-07-31T17:23:35;97766.13;;;27.38;50.36
19259;BME280;9763;48.780;9.212;2023-07-31T17:26:58;97768.88;;;27.31;50.14
19259;BME280;9763;48.780;9.212;2023-07-31T17:30:22;97774.53;;;27.23;49.80
19259;BME280;9763;48.780;9.212;2023-07-31T17:33:45;97774.81;;;27.15;49.75
19259;BME280;9763;48.780;9.212;2023-07-31T17:37:09;97784.75;;;27.08;50.19
19259;BME280;9763;48.780;9.212;2023-07-31T17:40:34;97774.72;;;27.03;50.61
19259;BME280;9763;48.780;9.212;2023-07-31T17:43:58;97767.13;;;27.00;50.57
19259;BME280;9763;48.780;9.212;2023-07-31T17:47:21;97763.63;;;27.00;51.13
19259;BME280;9763;48.780;9.212;2023-07-31T17:50:49;97766.72;;;26.97;50.81
19259;BME280;9763;48.780;9.212;2023-07-31T17:54:14;97769.03;;;26.93;50.71
19259;BME280;9763;48.780;9.212;2023-07-31T17:57:38;97763.88;;;26.92;50.78
19259;BME280;9763;48.780;9.212;2023-07-31T18:01:02;97758.13;;;26.88;51.44
19259;BME280;9763;48.780;9.212;2023-07-31T18:04:26;97764.09;;;26.90;51.20
19259;BME280;9763;48.780;9.212;2023-07-31T18:07:50;97761.41;;;26.90;51.68
19259;BME280;9763;48.780;9.212;2023-07-31T18:11:13;97767.81;;;26.89;51.84
19259;BME280;9763;48.780;9.212;2023-07-31T18:14:38;97765.94;;;26.89;51.31
19259;BME280;9763;48.780;9.212;2023-07-31T18:18:02;97762.66;;;26.87;51.65